sensor_id;sensor_type;location;lat;lon;timestamp;pressure;altitude;pressure_sealevel;temperature;humidity
35551;BME280;21655;46.056;13.616;2022-09-02T00:01:45;100433.50;;;17.61;100.00
35551;BME280;21655;46.056;13.616;2022-09-02T00:04:22;100434.19;;;17.57;99.45
35551;BME280;21655;46.056;13.616;2022-09-02T00:06:50;100438.50;;;17.53;100.00
35551;BME280;21655;46.056;13.616;2022-09-02T00:09:19;100436.16;;;17.50;100.00
35551;BME280;21655;46.056;13.616;2022-09-02T00:11:47;100433.38;;;17.43;100.00
35551;BME280;21655;46.056;13.616;2022-09-02T00:14:18;100436.66;;;17.34;100.00
35551;BME280;21655;46.056;13.616;2022-09-02T00:16:43;100436.00;;;17.25;100.00
35551;BME280;21655;46.056;13.616;2022-09-02T00:19:15;100430.72;;;17.04;100.00
35551;BME280;21655;46.056;13.616;2022-09-02T00:21:41;100431.34;;;17.06;100.00
35551;BME280;21655;46.056;13.616;2022-09-02T00:24:07;100432.84;;;17.15;100.00
35551;BME280;21655;46.056;13.616;2022-09-02T00:26:32;100433.66;;;17.22;100.00
35551;BME280;21655;46.056;13.616;2022-09-02T00:28:58;100428.09;;;17.09;100.00
35551;BME280;21655;46.056;13.616;2022-09-02T00:31:25;100433.50;;;17.11;100.00
35551;BME280;21655;46.056;13.616;2022-09-02T00:33:51;100436.31;;;17.04;100.00
35551;BME280;21655;46.056;13.616;2022-09-02T00:36:17;100438.25;;;17.04;100.00
35551;BME280;21655;46.056;13.616;2022-09-02T00:38:43;100444.53;;;16.93;100.00
35551;BME280;21655;46.056;13.616;2022-09-02T00:41:10;100439.59;;;16.89;100.00
35551;BME280;21655;46.056;13.616;2022-09-02T00:43:57;100440.69;;;16.75;100.00
35551;BME280;21655;46.056;13.616;2022-09-02T00:46:26;100443.69;;;16.86;100.00
35551;BME280;21655;46.056;13.616;2022-09-02T00:49:00;100446.91;;;16.90;100.00
35551;BME280;21655;46.056;13.616;2022-09-02T00:51:30;100444.13;;;16.83;100.00
35551;BME280;21655;46.056;13.616;2022-09-02T00:53:57;100442.84;;;16.79;100.00
35551;BME280;21655;46.056;13.616;2022-09-02T00:56:26;100445.00;;;16.77;100.00
35551;BME280;21655;46.056;13.616;2022-09-02T00:58:53;100445.22;;;16.63;100.00
35551;BME280;21655;46.056;13.616;2022-09-02T01:01:19;100447.19;;;16.56;100.00
35551;BME280;21655;46.056;13.616;2022-09-02T01:03:47;100443.94;;;16.59;100.00
35551;BME280;21655;46.056;13.616;2022-09-02T01:06:13;100439.41;;;16.58;100.00
35551;BME280;21655;46.056;13.616;2022-09-02T01:08:42;100436.63;;;16.58;100.00
35551;BME280;21655;46.056;13.616;2022-09-02T01:11:10;100441.81;;;16.48;100.00
35551;BME280;21655;46.056;13.616;2022-09-02T01:13:40;100451.50;;;16.45;100.00
35551;BME280;21655;46.056;13.616;2022-09-02T01:16:11;100443.75;;;16.54;100.00
35551;BME280;21655;46.056;13.616;2022-09-02T01:18:39;100435.09;;;16.62;100.00
35551;BME280;21655;46.056;13.616;2022-09-02T01:21:08;100438.53;;;16.77;100.00
35551;BME280;21655;46.056;13.616;2022-09-02T01:23:35;100435.06;;;16.94;100.00
35551;BME280;21655;46.056;13.616;2022-09-02T01:26:03;100436.50;;;17.09;100.00
35551;BME280;21655;46.056;13.616;2022-09-02T01:28:29;100427.59;;;17.25;100.00
35551;BME280;21655;46.056;13.616;2022-09-02T01:30:57;100425.69;;;17.26;100.00
35551;BME280;21655;46.056;13.616;2022-09-02T01:33:23;100426.06;;;17.29;100.00
35551;BME280;21655;46.056;13.616;2022-09-02T01:35:49;100431.47;;;17.31;100.00
35551;BME280;21655;46.056;13.616;2022-09-02T01:38:15;100430.84;;;17.35;100.00
35551;BME280;21655;46.056;13.616;2022-09-02T01:40:40;100424.81;;;17.25;100.00
35551;BME280;21655;46.056;13.616;2022-09-02T01:43:11;100426.81;;;17.12;100.00
35551;BME280;21655;46.056;13.616;2022-09-02T01:45:40;100428.38;;;16.95;100.00
35551;BME280;21655;46.056;13.616;2022-09-02T01:48:07;100424.94;;;16.87;100.00
35551;BME280;21655;46.056;13.616;2022-09-02T01:50:36;100427.56;;;16.75;100.00
35551;BME280;21655;46.056;13.616;2022-09-02T01:53:02;100417.22;;;16.69;100.00
35551;BME280;21655;46.056;13.616;2022-09-02T01:55:29;100419.19;;;16.56;100.00
35551;BME280;21655;46.056;13.616;2022-09-02T01:57:55;100410.78;;;16.49;100.00
35551;BME280;21655;46.056;13.616;2022-09-02T02:00:20;100411.66;;;16.43;100.00
35551;BME280;21655;46.056;13.616;2022-09-02T02:02:47;100419.81;;;16.45;100.00
35551;BME280;21655;46.056;13.616;2022-09-02T02:05:12;100418.34;;;16.36;100.00
35551;BME280;21655;46.056;13.616;2022-09-02T02:07:40;100423.03;;;16.22;100.00
35551;BME280;21655;46.056;13.616;2022-09-02T02:10:06;100425.19;;;16.27;100.00
35551;BME280;21655;46.056;13.616;2022-09-02T02:12:33;100431.88;;;16.32;100.00
35551;BME280;21655;46.056;13.616;2022-09-02T02:15:01;100424.75;;;16.30;100.00
35551;BME280;21655;46.056;13.616;2022-09-02T02:17:27;100430.16;;;16.25;100.00
35551;BME280;21655;46.056;13.616;2022-09-02T02:19:52;100424.97;;;16.22;100.00
35551;BME280;21655;46.056;13.616;2022-09-02T02:22:18;100439.59;;;16.17;100.00
35551;BME280;21655;46.056;13.616;2022-09-02T02:24:43;100428.41;;;16.24;100.00
35551;BME280;21655;46.056;13.616;2022-09-02T02:27:09;100433.56;;;16.20;100.00
35551;BME280;21655;46.056;13.616;2022-09-02T02:29:34;100436.16;;;16.09;100.00
35551;BME280;21655;46.056;13.616;2022-09-02T02:32:00;100440.25;;;16.00;100.00
35551;BME280;21655;46.056;13.616;2022-09-02T02:34:25;100443.69;;;16.02;100.00
35551;BME280;21655;46.056;13.616;2022-09-02T02:36:51;100430.81;;;16.07;100.00
35551;BME280;21655;46.056;13.616;2022-09-02T02:39:16;100434.69;;;16.06;100.00
35551;BME280;21655;46.056;13.616;2022-09-02T02:41:42;100432.06;;;16.05;100.00
35551;BME280;21655;46.056;13.616;2022-09-02T02:44:08;100434.25;;;16.09;100.00
35551;BME280;21655;46.056;13.616;2022-09-02T02:46:34;100430.56;;;16.02;100.00
35551;BME280;21655;46.056;13.616;2022-09-02T02:49:00;100434.66;;;15.93;100.00
35551;BME280;21655;46.056;13.616;2022-09-02T02:51:26;100425.81;;;15.90;100.00
35551;BME280;21655;46.056;13.616;2022-09-02T02:53:52;100435.72;;;15.86;100.00
35551;BME280;21655;46.056;13.616;2022-09-02T02:56:17;100425.81;;;15.83;100.00
35551;BME280;21655;46.056;13.616;2022-09-02T02:58:43;100417.84;;;15.80;100.00
35551;BME280;21655;46.056;13.616;2022-09-02T03:01:08;100424.28;;;15.81;100.00
35551;BME280;21655;46.056;13.616;2022-09-02T03:03:34;100426.03;;;15.75;100.00
35551;BME280;21655;46.056;13.616;2022-09-02T03:06:00;100424.28;;;15.68;100.00
35551;BME280;21655;46.056;13.616;2022-09-02T03:08:26;100423.41;;;15.67;100.00
35551;BME280;21655;46.056;13.616;2022-09-02T03:10:53;100435.44;;;15.61;100.00
35551;BME280;21655;46.056;13.616;2022-09-02T03:13:24;100428.31;;;15.59;100.00
35551;BME280;21655;46.056;13.616;2022-09-02T03:15:50;100426.81;;;15.63;100.00
35551;BME280;21655;46.056;13.616;2022-09-02T03:18:16;100424.69;;;15.58;100.00
35551;BME280;21655;46.056;13.616;2022-09-02T03:20:42;100429.84;;;15.55;100.00
35551;BME280;21655;46.056;13.616;2022-09-02T03:23:07;100426.16;;;15.54;100.00
35551;BME280;21655;46.056;13.616;2022-09-02T03:25:34;100418.00;;;15.53;100.00
35551;BME280;21655;46.056;13.616;2022-09-02T03:28:01;100426.38;;;15.53;100.00
35551;BME280;21655;46.056;13.616;2022-09-02T03:30:29;100431.56;;;15.56;100.00
35551;BME280;21655;46.056;13.616;2022-09-02T03:32:57;100419.28;;;15.57;100.00
35551;BME280;21655;46.056;13.616;2022-09-02T03:35:24;100421.88;;;15.52;100.00
35551;BME280;21655;46.056;13.616;2022-09-02T03:37:50;100414.56;;;15.51;100.00
35551;BME280;21655;46.056;13.616;2022-09-02T03:40:19;100420.78;;;15.53;100.00
35551;BME280;21655;46.056;13.616;2022-09-02T03:42:45;100418.63;;;15.48;100.00
35551;BME280;21655;46.056;13.616;2022-09-02T03:45:11;100424.63;;;15.45;100.00
35551;BME280;21655;46.056;13.616;2022-09-02T03:47:39;100424.41;;;15.47;100.00
35551;BME280;21655;46.056;13.616;2022-09-02T03:50:09;100420.97;;;15.45;100.00
35551;BME280;21655;46.056;13.616;2022-09-02T03:52:34;100418.81;;;15.47;100.00
35551;BME280;21655;46.056;13.616;2022-09-02T03:55:02;100426.97;;;15.42;100.00
35551;BME280;21655;46.056;13.616;2022-09-02T03:57:27;100414.97;;;15.41;100.00
35551;BME280;21655;46.056;13.616;2022-09-02T03:59:53;100416.22;;;15.39;100.00
35551;BME280;21655;46.056;13.616;2022-09-02T04:02:18;100419.00;;;15.32;100.00
35551;BME280;21655;46.056;13.616;2022-09-02T04:04:44;100408.28;;;15.36;100.00
35551;BME280;21655;46.056;13.616;2022-09-02T04:07:09;100407.81;;;15.32;100.00
35551;BME280;21655;46.056;13.616;2022-09-02T04:09:35;100414.63;;;15.23;100.00
35551;BME280;21655;46.056;13.616;2022-09-02T04:12:02;100419.56;;;15.21;100.00
35551;BME280;21655;46.056;13.616;2022-09-02T04:14:28;100421.06;;;15.17;100.00
35551;BME280;21655;46.056;13.616;2022-09-02T04:16:53;100426.00;;;15.15;100.00
35551;BME280;21655;46.056;13.616;2022-09-02T04:19:19;100417.41;;;15.17;100.00
35551;BME280;21655;46.056;13.616;2022-09-02T04:21:44;100423.81;;;15.11;100.00
35551;BME280;21655;46.056;13.616;2022-09-02T04:24:10;100425.53;;;15.12;100.00
35551;BME280;21655;46.056;13.616;2022-09-02T04:26:36;100427.28;;;15.19;100.00
35551;BME280;21655;46.056;13.616;2022-09-02T04:29:02;100421.50;;;15.21;100.00
35551;BME280;21655;46.056;13.616;2022-09-02T04:31:29;100421.09;;;15.24;100.00
35551;BME280;21655;46.056;13.616;2022-09-02T04:33:55;100423.00;;;15.23;100.00
35551;BME280;21655;46.056;13.616;2022-09-02T04:36:21;100420.63;;;15.20;100.00
35551;BME280;21655;46.056;13.616;2022-09-02T04:38:46;100421.94;;;15.18;100.00
35551;BME280;21655;46.056;13.616;2022-09-02T04:41:18;100421.69;;;15.19;100.00
35551;BME280;21655;46.056;13.616;2022-09-02T04:43:44;100428.81;;;15.22;100.00
35551;BME280;21655;46.056;13.616;2022-09-02T04:46:13;100418.47;;;15.22;100.00
35551;BME280;21655;46.056;13.616;2022-09-02T04:48:39;100423.88;;;15.24;100.00
35551;BME280;21655;46.056;13.616;2022-09-02T04:51:10;100425.78;;;15.17;100.00
35551;BME280;21655;46.056;13.616;2022-09-02T04:53:37;100426.88;;;15.16;100.00
35551;BME280;21655;46.056;13.616;2022-09-02T04:56:08;100429.00;;;15.20;100.00
35551;BME280;21655;46.056;13.616;2022-09-02T04:58:34;100427.94;;;15.21;100.00
35551;BME280;21655;46.056;13.616;2022-09-02T05:01:07;100424.94;;;15.23;100.00
35551;BME280;21655;46.056;13.616;2022-09-02T05:03:34;100426.66;;;15.24;100.00
35551;BME280;21655;46.056;13.616;2022-09-02T05:06:03;100426.25;;;15.27;100.00
35551;BME280;21655;46.056;13.616;2022-09-02T05:08:28;100422.00;;;15.31;100.00
35551;BME280;21655;46.056;13.616;2022-09-02T05:10:54;100417.28;;;15.31;100.00
35551;BME280;21655;46.056;13.616;2022-09-02T05:13:19;100414.88;;;15.28;100.00
35551;BME280;21655;46.056;13.616;2022-09-02T05:15:45;100428.47;;;15.38;100.00
35551;BME280;21655;46.056;13.616;2022-09-02T05:18:11;100424.81;;;15.37;100.00
35551;BME280;21655;46.056;13.616;2022-09-02T05:20:38;100422.91;;;15.38;100.00
35551;BME280;21655;46.056;13.616;2022-09-02T05:23:04;100419.47;;;15.42;100.00
35551;BME280;21655;46.056;13.616;2022-09-02T05:25:30;100417.34;;;15.44;100.00
35551;BME280;21655;46.056;13.616;2022-09-02T05:27:56;100412.59;;;15.51;100.00
35551;BME280;21655;46.056;13.616;2022-09-02T05:30:21;100406.19;;;15.51;100.00
35551;BME280;21655;46.056;13.616;2022-09-02T05:32:47;100409.19;;;15.56;100.00
35551;BME280;21655;46.056;13.616;2022-09-02T05:35:14;100412.25;;;15.74;100.00
35551;BME280;21655;46.056;13.616;2022-09-02T05:37:40;100408.38;;;15.88;100.00
35551;BME280;21655;46.056;13.616;2022-09-02T05:40:06;100408.84;;;15.91;100.00
35551;BME280;21655;46.056;13.616;2022-09-02T05:42:32;100406.22;;;16.81;100.00
35551;BME280;21655;46.056;13.616;2022-09-02T05:44:58;100405.69;;;17.97;100.00
35551;BME280;21655;46.056;13.616;2022-09-02T05:47:23;100393.16;;;18.91;96.08
35551;BME280;21655;46.056;13.616;2022-09-02T05:49:49;100390.81;;;19.42;88.82
35551;BME280;21655;46.056;13.616;2022-09-02T05:52:15;100401.66;;;20.15;82.41
35551;BME280;21655;46.056;13.616;2022-09-02T05:54:43;100394.38;;;20.60;79.83
35551;BME280;21655;46.056;13.616;2022-09-02T05:57:12;100395.13;;;20.79;79.45
35551;BME280;21655;46.056;13.616;2022-09-02T05:59:40;100390.34;;;20.45;80.32
35551;BME280;21655;46.056;13.616;2022-09-02T06:02:08;100395.13;;;20.79;80.16
35551;BME280;21655;46.056;13.616;2022-09-02T06:04:39;100390.84;;;20.53;79.04
35551;BME280;21655;46.056;13.616;2022-09-02T06:07:05;100388.97;;;21.16;77.41
35551;BME280;21655;46.056;13.616;2022-09-02T06:09:30;100380.84;;;21.42;75.04
35551;BME280;21655;46.056;13.616;2022-09-02T06:11:56;100383.31;;;21.78;72.43
35551;BME280;21655;46.056;13.616;2022-09-02T06:14:23;100390.72;;;21.68;71.60
35551;BME280;21655;46.056;13.616;2022-09-02T06:16:53;100381.88;;;22.37;67.92
35551;BME280;21655;46.056;13.616;2022-09-02T06:19:19;100374.53;;;22.69;65.87
35551;BME280;21655;46.056;13.616;2022-09-02T06:21:45;100376.78;;;22.22;67.50
35551;BME280;21655;46.056;13.616;2022-09-02T06:24:11;100370.72;;;22.80;63.63
35551;BME280;21655;46.056;13.616;2022-09-02T06:26:38;100374.22;;;23.41;61.17
35551;BME280;21655;46.056;13.616;2022-09-02T06:29:05;100382.50;;;23.90;58.75
35551;BME280;21655;46.056;13.616;2022-09-02T06:31:31;100378.47;;;24.71;55.78
35551;BME280;21655;46.056;13.616;2022-09-02T06:33:57;100373.78;;;25.22;53.58
35551;BME280;21655;46.056;13.616;2022-09-02T06:36:25;100378.50;;;25.58;52.45
35551;BME280;21655;46.056;13.616;2022-09-02T06:38:52;100371.38;;;26.62;49.22
35551;BME280;21655;46.056;13.616;2022-09-02T06:41:22;100352.72;;;27.59;46.62
35551;BME280;21655;46.056;13.616;2022-09-02T06:43:49;100340.72;;;27.57;45.40
35551;BME280;21655;46.056;13.616;2022-09-02T06:46:22;100343.00;;;28.57;43.15
35551;BME280;21655;46.056;13.616;2022-09-02T06:48:48;100361.03;;;29.15;42.11
35551;BME280;21655;46.056;13.616;2022-09-02T06:51:18;100397.34;;;30.13;40.30
35551;BME280;21655;46.056;13.616;2022-09-02T06:53:44;100419.41;;;30.49;38.92
35551;BME280;21655;46.056;13.616;2022-09-02T06:56:10;100406.38;;;31.12;37.87
35551;BME280;21655;46.056;13.616;2022-09-02T06:58:36;100396.44;;;32.22;35.88
35551;BME280;21655;46.056;13.616;2022-09-02T07:01:01;100379.56;;;32.43;35.17
35551;BME280;21655;46.056;13.616;2022-09-02T07:03:27;100373.53;;;32.31;34.36
35551;BME280;21655;46.056;13.616;2022-09-02T07:06:11;100361.69;;;32.81;33.98
35551;BME280;21655;46.056;13.616;2022-09-02T07:08:38;100361.63;;;32.37;34.39
35551;BME280;21655;46.056;13.616;2022-09-02T07:11:06;100353.25;;;31.46;35.26
35551;BME280;21655;46.056;13.616;2022-09-02T07:13:33;100355.50;;;30.72;36.76
35551;BME280;21655;46.056;13.616;2022-09-02T07:15:58;100347.28;;;30.47;37.46
35551;BME280;21655;46.056;13.616;2022-09-02T07:18:25;100351.44;;;32.18;34.82
35551;BME280;21655;46.056;13.616;2022-09-02T07:20:50;100346.84;;;32.03;34.42
35551;BME280;21655;46.056;13.616;2022-09-02T07:23:16;100348.75;;;32.70;33.72
35551;BME280;21655;46.056;13.616;2022-09-02T07:25:42;100352.28;;;31.37;34.99
35551;BME280;21655;46.056;13.616;2022-09-02T07:28:09;100354.56;;;31.67;35.19
35551;BME280;21655;46.056;13.616;2022-09-02T07:30:35;100336.19;;;31.82;34.35
35551;BME280;21655;46.056;13.616;2022-09-02T07:33:01;100342.06;;;31.18;34.97
35551;BME280;21655;46.056;13.616;2022-09-02T07:35:27;100345.19;;;31.35;34.63
35551;BME280;21655;46.056;13.616;2022-09-02T07:37:53;100345.00;;;33.74;31.24
35551;BME280;21655;46.056;13.616;2022-09-02T07:40:18;100343.84;;;33.45;29.73
35551;BME280;21655;46.056;13.616;2022-09-02T07:42:44;100345.72;;;34.36;27.34
35551;BME280;21655;46.056;13.616;2022-09-02T07:45:10;100339.53;;;34.12;26.88
35551;BME280;21655;46.056;13.616;2022-09-02T07:47:36;100339.28;;;33.83;26.15
35551;BME280;21655;46.056;13.616;2022-09-02T07:50:03;100350.09;;;34.33;26.30
35551;BME280;21655;46.056;13.616;2022-09-02T07:52:29;100344.16;;;34.98;24.46
35551;BME280;21655;46.056;13.616;2022-09-02T07:54:55;100353.84;;;35.27;24.38
35551;BME280;21655;46.056;13.616;2022-09-02T07:57:20;100344.41;;;36.22;23.66
35551;BME280;21655;46.056;13.616;2022-09-02T07:59:46;100355.06;;;36.59;23.25
35551;BME280;21655;46.056;13.616;2022-09-02T08:02:12;100349.41;;;35.75;23.26
35551;BME280;21655;46.056;13.616;2022-09-02T08:04:39;100346.75;;;35.70;24.58
35551;BME280;21655;46.056;13.616;2022-09-02T08:07:04;100339.94;;;35.75;24.17
35551;BME280;21655;46.056;13.616;2022-09-02T08:09:30;100345.78;;;35.41;23.95
35551;BME280;21655;46.056;13.616;2022-09-02T08:11:55;100340.13;;;35.99;24.05
35551;BME280;21655;46.056;13.616;2022-09-02T08:14:24;100343.75;;;36.45;23.16
35551;BME280;21655;46.056;13.616;2022-09-02T08:16:52;100350.44;;;35.17;23.70
35551;BME280;21655;46.056;13.616;2022-09-02T08:19:18;100351.81;;;34.94;24.31
35551;BME280;21655;46.056;13.616;2022-09-02T08:21:44;100351.81;;;35.02;24.35
35551;BME280;21655;46.056;13.616;2022-09-02T08:24:10;100349.56;;;35.33;23.63
35551;BME280;21655;46.056;13.616;2022-09-02T08:26:35;100344.47;;;36.13;24.36
35551;BME280;21655;46.056;13.616;2022-09-02T08:29:03;100339.97;;;35.95;23.19
35551;BME280;21655;46.056;13.616;2022-09-02T08:31:29;100339.47;;;36.51;23.18
35551;BME280;21655;46.056;13.616;2022-09-02T08:33:56;100349.91;;;35.23;23.55
35551;BME280;21655;46.056;13.616;2022-09-02T08:36:22;100339.44;;;36.31;23.93
35551;BME280;21655;46.056;13.616;2022-09-02T08:38:47;100336.00;;;36.37;23.27
35551;BME280;21655;46.056;13.616;2022-09-02T08:43:43;100332.00;;;36.50;24.19
35551;BME280;21655;46.056;13.616;2022-09-02T08:46:11;100332.50;;;37.38;21.92
35551;BME280;21655;46.056;13.616;2022-09-02T08:49:34;100340.97;;;35.99;22.66
35551;BME280;21655;46.056;13.616;2022-09-02T08:52:00;100330.50;;;35.49;23.75
35551;BME280;21655;46.056;13.616;2022-09-02T08:56:58;100330.47;;;36.44;22.41
35551;BME280;21655;46.056;13.616;2022-09-02T08:59:25;100318.41;;;36.22;23.39
35551;BME280;21655;46.056;13.616;2022-09-02T09:10:51;100317.31;;;35.31;24.66
35551;BME280;21655;46.056;13.616;2022-09-02T09:16:11;100307.63;;;35.36;24.37
35551;BME280;21655;46.056;13.616;2022-09-02T09:19:04;100315.34;;;34.38;26.06
35551;BME280;21655;46.056;13.616;2022-09-02T09:21:33;100314.09;;;34.05;26.87
35551;BME280;21655;46.056;13.616;2022-09-02T09:24:19;100305.50;;;33.66;27.46
35551;BME280;21655;46.056;13.616;2022-09-02T09:26:46;100303.56;;;33.84;26.24
35551;BME280;21655;46.056;13.616;2022-09-02T09:29:11;100297.94;;;34.69;26.26
35551;BME280;21655;46.056;13.616;2022-09-02T09:31:38;100297.84;;;35.20;25.59
35551;BME280;21655;46.056;13.616;2022-09-02T09:34:06;100288.34;;;35.94;25.21
35551;BME280;21655;46.056;13.616;2022-09-02T09:39:19;100285.38;;;35.36;25.76
35551;BME280;21655;46.056;13.616;2022-09-02T09:41:46;100288.97;;;35.33;25.52
35551;BME280;21655;46.056;13.616;2022-09-02T09:44:35;100287.22;;;36.07;25.34
35551;BME280;21655;46.056;13.616;2022-09-02T09:47:08;100272.44;;;36.08;24.95
35551;BME280;21655;46.056;13.616;2022-09-02T09:49:35;100284.09;;;33.89;26.25
35551;BME280;21655;46.056;13.616;2022-09-02T09:52:01;100275.38;;;34.79;26.73
35551;BME280;21655;46.056;13.616;2022-09-02T09:54:27;100273.47;;;34.15;27.09
35551;BME280;21655;46.056;13.616;2022-09-02T09:56:53;100272.97;;;34.05;27.60
35551;BME280;21655;46.056;13.616;2022-09-02T09:59:38;100273.25;;;33.86;27.45
35551;BME280;21655;46.056;13.616;2022-09-02T10:02:17;100264.94;;;33.29;26.95
35551;BME280;21655;46.056;13.616;2022-09-02T10:04:43;100269.38;;;33.91;25.56
35551;BME280;21655;46.056;13.616;2022-09-02T10:07:10;100262.66;;;34.29;25.71
35551;BME280;21655;46.056;13.616;2022-09-02T10:09:37;100265.63;;;34.92;25.46
35551;BME280;21655;46.056;13.616;2022-09-02T10:12:10;100251.94;;;34.64;25.20
35551;BME280;21655;46.056;13.616;2022-09-02T10:14:44;100254.94;;;35.01;24.99
35551;BME280;21655;46.056;13.616;2022-09-02T10:19:54;100243.81;;;34.15;26.27
35551;BME280;21655;46.056;13.616;2022-09-02T10:25:26;100236.16;;;35.99;24.28
35551;BME280;21655;46.056;13.616;2022-09-02T10:30:21;100223.63;;;35.29;23.89
35551;BME280;21655;46.056;13.616;2022-09-02T10:35:45;100227.34;;;35.66;25.13
35551;BME280;21655;46.056;13.616;2022-09-02T10:38:21;100224.81;;;34.82;24.35
35551;BME280;21655;46.056;13.616;2022-09-02T10:40:58;100223.13;;;34.55;24.76
35551;BME280;21655;46.056;13.616;2022-09-02T10:43:54;100223.47;;;35.25;24.28
35551;BME280;21655;46.056;13.616;2022-09-02T10:46:21;100211.22;;;36.35;23.18
35551;BME280;21655;46.056;13.616;2022-09-02T10:49:25;100217.41;;;35.84;23.93
35551;BME280;21655;46.056;13.616;2022-09-02T10:55:26;100222.09;;;35.68;23.98
35551;BME280;21655;46.056;13.616;2022-09-02T10:58:02;100213.69;;;35.47;23.13
35551;BME280;21655;46.056;13.616;2022-09-02T11:00:30;100216.28;;;35.77;22.70
35551;BME280;21655;46.056;13.616;2022-09-02T11:05:50;100209.78;;;35.80;24.06
35551;BME280;21655;46.056;13.616;2022-09-02T11:08:37;100208.13;;;36.20;23.79
35551;BME280;21655;46.056;13.616;2022-09-02T11:24:59;100204.59;;;35.36;24.06
35551;BME280;21655;46.056;13.616;2022-09-02T11:27:38;100200.78;;;36.02;23.84
35551;BME280;21655;46.056;13.616;2022-09-02T11:30:15;100205.50;;;36.06;22.63
35551;BME280;21655;46.056;13.616;2022-09-02T11:32:54;100205.75;;;36.54;23.29
35551;BME280;21655;46.056;13.616;2022-09-02T11:35:23;100199.06;;;36.09;23.40
35551;BME280;21655;46.056;13.616;2022-09-02T11:38:04;100203.44;;;36.07;22.31
35551;BME280;21655;46.056;13.616;2022-09-02T11:43:37;100200.94;;;37.35;22.24
35551;BME280;21655;46.056;13.616;2022-09-02T11:46:25;100204.91;;;37.43;20.84
35551;BME280;21655;46.056;13.616;2022-09-02T11:49:20;100197.41;;;37.06;21.68
35551;BME280;21655;46.056;13.616;2022-09-02T11:54:18;100190.72;;;35.58;23.15
35551;BME280;21655;46.056;13.616;2022-09-02T11:56:56;100207.94;;;35.01;23.91
35551;BME280;21655;46.056;13.616;2022-09-02T12:13:31;100181.50;;;35.36;23.26
35551;BME280;21655;46.056;13.616;2022-09-02T12:21:31;100178.41;;;33.64;26.12
35551;BME280;21655;46.056;13.616;2022-09-02T12:26:29;100178.09;;;33.83;26.46
35551;BME280;21655;46.056;13.616;2022-09-02T12:31:50;100172.84;;;33.93;25.54
35551;BME280;21655;46.056;13.616;2022-09-02T12:36:55;100180.38;;;33.00;27.15
35551;BME280;21655;46.056;13.616;2022-09-02T12:45:03;100169.72;;;30.79;28.20
35551;BME280;21655;46.056;13.616;2022-09-02T12:50:26;100165.25;;;29.77;31.96
35551;BME280;21655;46.056;13.616;2022-09-02T12:53:26;100158.63;;;29.63;30.46
35551;BME280;21655;46.056;13.616;2022-09-02T12:56:02;100156.81;;;29.30;30.77
35551;BME280;21655;46.056;13.616;2022-09-02T12:58:37;100162.88;;;29.66;31.98
35551;BME280;21655;46.056;13.616;2022-09-02T13:04:02;100154.13;;;29.94;31.15
35551;BME280;21655;46.056;13.616;2022-09-02T13:06:54;100147.47;;;30.17;30.46
35551;BME280;21655;46.056;13.616;2022-09-02T13:09:34;100146.94;;;30.15;31.07
35551;BME280;21655;46.056;13.616;2022-09-02T13:32:23;100123.56;;;30.94;29.13
35551;BME280;21655;46.056;13.616;2022-09-02T13:34:52;100123.25;;;30.69;31.78
35551;BME280;21655;46.056;13.616;2022-09-02T13:37:42;100119.38;;;30.19;30.72
35551;BME280;21655;46.056;13.616;2022-09-02T13:40:20;100115.22;;;29.61;32.06
35551;BME280;21655;46.056;13.616;2022-09-02T13:43:00;100106.31;;;29.44;32.96
35551;BME280;21655;46.056;13.616;2022-09-02T13:45:28;100109.78;;;29.23;32.35
35551;BME280;21655;46.056;13.616;2022-09-02T13:47:56;100112.09;;;28.79;31.80
35551;BME280;21655;46.056;13.616;2022-09-02T13:50:25;100110.25;;;29.12;31.61
35551;BME280;21655;46.056;13.616;2022-09-02T13:52:54;100112.63;;;29.05;32.41
35551;BME280;21655;46.056;13.616;2022-09-02T13:55:21;100108.94;;;29.23;31.87
35551;BME280;21655;46.056;13.616;2022-09-02T14:00:31;100106.56;;;29.66;31.41
35551;BME280;21655;46.056;13.616;2022-09-02T14:03:02;100101.16;;;29.46;31.18
35551;BME280;21655;46.056;13.616;2022-09-02T14:05:28;100094.28;;;29.29;31.60
35551;BME280;21655;46.056;13.616;2022-09-02T14:07:56;100103.41;;;29.49;32.29
35551;BME280;21655;46.056;13.616;2022-09-02T14:10:25;100103.47;;;29.63;31.35
35551;BME280;21655;46.056;13.616;2022-09-02T14:12:53;100106.34;;;29.63;31.14
35551;BME280;21655;46.056;13.616;2022-09-02T14:15:28;100098.97;;;29.75;32.05
35551;BME280;21655;46.056;13.616;2022-09-02T14:23:23;100091.78;;;29.04;33.48
35551;BME280;21655;46.056;13.616;2022-09-02T14:25:58;100090.97;;;28.80;34.46
35551;BME280;21655;46.056;13.616;2022-09-02T14:28:27;100087.06;;;28.95;34.04
35551;BME280;21655;46.056;13.616;2022-09-02T14:33:26;100098.84;;;28.13;36.05
35551;BME280;21655;46.056;13.616;2022-09-02T14:36:31;100097.47;;;28.62;36.05
35551;BME280;21655;46.056;13.616;2022-09-02T14:39:15;100086.22;;;28.94;33.90
35551;BME280;21655;46.056;13.616;2022-09-02T14:41:46;100093.69;;;28.90;33.84
35551;BME280;21655;46.056;13.616;2022-09-02T14:44:28;100086.03;;;28.86;34.63
35551;BME280;21655;46.056;13.616;2022-09-02T14:47:02;100083.44;;;29.08;32.63
35551;BME280;21655;46.056;13.616;2022-09-02T14:51:57;100075.13;;;29.11;34.20
35551;BME280;21655;46.056;13.616;2022-09-02T14:54:40;100076.19;;;29.15;34.86